createdAt,value
2019-03-31T00:01:45.259Z,35.53
2019-03-31T00:04:14.693Z,48.60
2019-03-31T00:06:44.075Z,46.33
2019-03-31T00:09:13.719Z,54.47
2019-03-31T00:11:43.180Z,54.60
2019-03-31T00:14:12.686Z,52.43
2019-03-31T00:16:42.171Z,39.70
2019-03-31T00:19:11.798Z,39.47
2019-03-31T00:21:41.128Z,58.20
2019-03-31T00:24:10.601Z,38.27
2019-03-31T00:26:39.951Z,44.90
2019-03-31T00:29:09.694Z,42.17
2019-03-31T00:31:39.123Z,51.03
2019-03-31T00:34:27.711Z,42.63
2019-03-31T00:36:57.084Z,55.80
2019-03-31T00:39:26.447Z,39.67
2019-03-31T00:41:55.873Z,43.23
2019-03-31T00:44:25.308Z,38.67
2019-03-31T00:46:54.997Z,51.33
2019-03-31T00:49:24.379Z,46.83
2019-03-31T00:51:53.707Z,40.00
2019-03-31T00:54:23.072Z,40.00
2019-03-31T00:56:52.453Z,38.43
2019-03-31T00:59:21.810Z,49.97
2019-03-31T01:01:56.336Z,41.60
2019-03-31T01:04:28.938Z,40.07
2019-03-31T01:06:58.761Z,47.33
2019-03-31T01:09:32.754Z,36.83
2019-03-31T01:12:04.205Z,53.53
2019-03-31T01:14:33.719Z,39.33
2019-03-31T01:17:06.163Z,50.93
2019-03-31T01:19:36.247Z,70.67
2019-03-31T01:22:05.694Z,41.33
2019-03-31T01:24:35.199Z,36.13
2019-03-31T01:27:06.567Z,41.53
2019-03-31T01:29:36.487Z,39.27
2019-03-31T01:32:06.083Z,32.43
2019-03-31T01:34:35.550Z,42.27
2019-03-31T01:37:05.729Z,38.23
2019-03-31T01:39:35.881Z,42.43
2019-03-31T01:42:05.985Z,34.23
2019-03-31T01:44:35.343Z,36.60
2019-03-31T01:47:05.994Z,38.63
2019-03-31T01:49:35.693Z,35.90
2019-03-31T01:52:05.573Z,33.80
2019-03-31T01:54:35.160Z,31.50
2019-03-31T01:57:04.598Z,35.80
2019-03-31T01:59:34.037Z,34.43
2019-03-31T02:02:04.749Z,38.03
2019-03-31T02:04:34.304Z,35.93
2019-03-31T02:07:04.088Z,39.47
2019-03-31T02:09:33.563Z,35.10
2019-03-31T02:12:03.059Z,36.00
2019-03-31T02:14:32.459Z,32.37
2019-03-31T02:17:03.298Z,36.10
2019-03-31T02:19:32.855Z,32.77
2019-03-31T02:22:02.585Z,34.73
2019-03-31T02:24:31.942Z,34.23
2019-03-31T02:27:01.710Z,32.53
2019-03-31T02:29:31.137Z,40.83
2019-03-31T02:32:00.766Z,34.80
2019-03-31T02:34:30.240Z,35.77
2019-03-31T02:36:59.770Z,34.27
2019-03-31T02:39:29.148Z,34.23
2019-03-31T02:41:58.589Z,34.73
2019-03-31T02:44:28.096Z,31.90
2019-03-31T02:46:57.619Z,30.40
2019-03-31T02:49:26.952Z,37.67
2019-03-31T02:51:56.520Z,38.13
2019-03-31T02:54:25.975Z,39.17
2019-03-31T02:56:56.300Z,31.23
2019-03-31T02:59:25.897Z,36.53
2019-03-31T03:01:57.192Z,36.40
2019-03-31T03:04:28.904Z,39.73
2019-03-31T03:06:59.898Z,29.97
2019-03-31T03:09:31.299Z,39.53
2019-03-31T03:12:03.175Z,32.73
2019-03-31T03:14:37.205Z,38.30
2019-03-31T03:17:06.832Z,38.70
2019-03-31T03:19:36.276Z,34.70
2019-03-31T03:22:06.019Z,34.33
2019-03-31T03:24:35.405Z,28.77
2019-03-31T03:27:05.095Z,35.60
2019-03-31T03:29:34.480Z,31.70
2019-03-31T03:32:03.995Z,34.33
2019-03-31T03:34:33.384Z,45.77
2019-03-31T03:37:03.658Z,44.90
2019-03-31T03:39:33.719Z,38.80
2019-03-31T03:42:03.166Z,35.93
2019-03-31T03:44:32.551Z,40.93
2019-03-31T03:47:01.995Z,32.90
2019-03-31T03:49:31.353Z,31.27
2019-03-31T03:52:00.711Z,37.33
2019-03-31T03:54:30.157Z,30.90
2019-03-31T03:56:59.523Z,34.37
2019-03-31T03:59:28.873Z,32.83
2019-03-31T04:01:58.227Z,51.00
2019-03-31T04:04:27.683Z,33.60
2019-03-31T04:06:57.060Z,39.10
2019-03-31T04:09:26.541Z,36.10
2019-03-31T04:11:56.373Z,35.47
2019-03-31T04:14:25.722Z,40.67
2019-03-31T04:16:55.347Z,40.30
2019-03-31T04:19:25.017Z,29.87
2019-03-31T04:21:54.385Z,39.03
2019-03-31T04:24:23.741Z,39.17
2019-03-31T04:26:53.177Z,38.83
2019-03-31T04:29:23.004Z,41.07
2019-03-31T04:31:52.420Z,37.03
2019-03-31T04:34:21.783Z,38.27
2019-03-31T04:36:51.272Z,36.40
2019-03-31T04:39:20.638Z,32.80
2019-03-31T04:41:49.967Z,34.70
2019-03-31T04:44:19.303Z,46.10
2019-03-31T04:46:48.761Z,41.70
2019-03-31T04:49:18.118Z,38.13
2019-03-31T04:51:47.482Z,38.57
2019-03-31T04:54:16.840Z,35.53
2019-03-31T04:56:46.348Z,41.93
2019-03-31T04:59:15.707Z,35.93
2019-03-31T05:01:45.259Z,39.47
2019-03-31T05:04:14.691Z,38.17
2019-03-31T05:06:44.215Z,40.33
2019-03-31T05:09:13.571Z,32.73
2019-03-31T05:11:42.920Z,33.47
2019-03-31T05:14:12.308Z,33.63
2019-03-31T05:16:41.670Z,38.97
2019-03-31T05:19:11.060Z,32.38
2019-03-31T05:21:40.408Z,43.30
2019-03-31T05:24:09.793Z,34.80
2019-03-31T05:26:39.271Z,37.63
2019-03-31T05:29:08.623Z,39.20
2019-03-31T05:31:38.055Z,40.07
2019-03-31T05:34:18.494Z,40.77
2019-03-31T05:36:39.144Z,42.67
2019-03-31T05:39:08.507Z,46.20
2019-03-31T05:41:38.485Z,41.77
2019-03-31T05:44:08.015Z,33.67
2019-03-31T05:46:37.432Z,40.20
2019-03-31T05:49:06.854Z,43.10
2019-03-31T05:51:36.273Z,37.93
2019-03-31T05:54:06.212Z,43.97
2019-03-31T05:56:35.584Z,37.47
2019-03-31T05:59:05.411Z,45.63
2019-03-31T06:01:34.844Z,39.03
2019-03-31T06:04:04.297Z,33.50
2019-03-31T06:06:36.927Z,36.03
2019-03-31T06:09:06.962Z,36.30
2019-03-31T06:11:36.471Z,37.80
2019-03-31T06:14:06.478Z,35.00
2019-03-31T06:16:35.909Z,34.77
2019-03-31T06:19:05.491Z,36.73
2019-03-31T06:21:34.903Z,35.10
2019-03-31T06:24:04.399Z,37.67
2019-03-31T06:26:33.771Z,38.80
2019-03-31T06:29:03.266Z,34.83
2019-03-31T06:31:32.615Z,43.17
2019-03-31T06:34:02.189Z,42.30
2019-03-31T06:36:31.611Z,38.20
2019-03-31T06:39:01.088Z,39.53
2019-03-31T06:41:30.511Z,36.80
2019-03-31T06:44:00.070Z,37.67
2019-03-31T06:46:29.871Z,40.27
2019-03-31T06:48:59.347Z,40.43
2019-03-31T06:51:28.727Z,34.30
2019-03-31T06:53:58.062Z,35.00
2019-03-31T06:56:27.955Z,42.50
2019-03-31T06:58:57.395Z,38.63
2019-03-31T07:01:27.371Z,42.40
2019-03-31T07:03:57.203Z,46.23
2019-03-31T07:06:26.928Z,48.60
2019-03-31T07:08:56.315Z,41.70
2019-03-31T07:11:25.671Z,37.10
2019-03-31T07:13:55.339Z,39.97
2019-03-31T07:16:24.815Z,50.40
2019-03-31T07:18:54.236Z,47.67
2019-03-31T07:21:23.959Z,35.20
2019-03-31T07:23:53.492Z,52.87
2019-03-31T07:26:22.902Z,40.63
2019-03-31T07:28:52.338Z,43.93
2019-03-31T07:31:21.869Z,42.07
2019-03-31T07:33:51.319Z,48.97
2019-03-31T07:36:20.852Z,47.20
2019-03-31T07:38:50.448Z,53.57
2019-03-31T07:41:20.195Z,49.10
2019-03-31T07:43:49.763Z,66.77
2019-03-31T07:46:19.602Z,84.37
2019-03-31T07:48:49.094Z,63.73
2019-03-31T07:51:18.531Z,79.47
2019-03-31T07:53:48.023Z,65.00
2019-03-31T07:56:17.699Z,89.20
2019-03-31T07:58:47.152Z,72.17
2019-03-31T08:01:16.647Z,93.07
2019-03-31T08:03:46.128Z,95.17
2019-03-31T08:06:15.831Z,97.20
2019-03-31T08:08:45.194Z,83.70
2019-03-31T08:11:17.100Z,89.53
2019-03-31T08:13:45.813Z,85.60
2019-03-31T08:16:15.216Z,91.17
2019-03-31T08:18:44.792Z,81.37
2019-03-31T08:21:14.280Z,86.60
2019-03-31T08:23:43.648Z,78.10
2019-03-31T08:26:13.000Z,85.10
2019-03-31T08:28:42.460Z,93.23
2019-03-31T08:31:11.859Z,91.67
2019-03-31T08:33:41.321Z,96.60
2019-03-31T08:36:10.739Z,95.90
2019-03-31T08:38:40.160Z,93.40
2019-03-31T08:41:09.575Z,104.97
2019-03-31T08:43:39.075Z,91.90
2019-03-31T08:46:08.584Z,107.50
2019-03-31T08:48:38.106Z,126.50
2019-03-31T08:51:07.538Z,113.10
2019-03-31T08:53:36.982Z,112.43
2019-03-31T08:56:08.770Z,104.13
2019-03-31T08:58:37.563Z,114.60
2019-03-31T09:01:11.606Z,110.90
2019-03-31T09:03:40.979Z,107.70
2019-03-31T09:06:10.540Z,116.00
2019-03-31T09:08:39.916Z,116.90
2019-03-31T09:11:09.638Z,128.67
2019-03-31T09:13:39.168Z,110.93
2019-03-31T09:16:14.742Z,112.27
2019-03-31T09:18:44.264Z,124.07
2019-03-31T09:21:13.650Z,106.13
2019-03-31T09:23:43.298Z,115.83
2019-03-31T09:26:12.787Z,125.83
2019-03-31T09:28:42.507Z,110.63
2019-03-31T09:31:11.974Z,107.60
2019-03-31T09:33:41.618Z,101.33
2019-03-31T09:36:16.589Z,121.87
2019-03-31T09:38:42.598Z,127.80
2019-03-31T09:41:12.284Z,110.30
2019-03-31T09:43:41.730Z,101.60
2019-03-31T09:46:11.175Z,81.70
2019-03-31T09:48:40.640Z,104.90
2019-03-31T09:51:10.212Z,104.83
2019-03-31T09:53:39.742Z,94.60
2019-03-31T09:56:09.086Z,92.70
2019-03-31T09:58:38.589Z,103.37
2019-03-31T10:01:08.318Z,118.90
2019-03-31T10:03:37.794Z,114.80
2019-03-31T10:06:11.056Z,110.73
2019-03-31T10:08:38.398Z,118.17
2019-03-31T10:11:07.788Z,118.87
2019-03-31T10:13:37.239Z,111.93
2019-03-31T10:16:06.737Z,107.93
2019-03-31T10:18:36.199Z,107.37
2019-03-31T10:21:05.874Z,105.40
2019-03-31T10:23:35.655Z,134.37
2019-03-31T10:26:05.273Z,116.20
2019-03-31T10:28:34.764Z,111.77
2019-03-31T10:31:04.187Z,106.47
2019-03-31T10:33:33.687Z,111.73
2019-03-31T10:36:03.236Z,103.17
2019-03-31T10:38:32.640Z,112.53
2019-03-31T10:41:02.114Z,108.40
2019-03-31T10:43:31.575Z,115.23
2019-03-31T10:46:01.236Z,98.87
2019-03-31T10:48:30.609Z,112.90
2019-03-31T10:51:00.044Z,98.67
2019-03-31T10:53:29.607Z,100.57
2019-03-31T10:55:59.080Z,92.80
2019-03-31T10:58:29.600Z,103.70
2019-03-31T11:00:59.082Z,115.83
2019-03-31T11:03:28.492Z,104.80
2019-03-31T11:05:58.245Z,70.90
2019-03-31T11:08:27.834Z,101.70
2019-03-31T11:10:57.279Z,100.63
2019-03-31T11:13:26.838Z,101.50
2019-03-31T11:15:57.614Z,91.90
2019-03-31T11:18:27.187Z,91.67
2019-03-31T11:20:58.272Z,85.03
2019-03-31T11:23:29.028Z,72.50
2019-03-31T11:25:58.489Z,89.53
2019-03-31T11:28:27.828Z,101.80
2019-03-31T11:30:57.354Z,111.70
2019-03-31T11:33:27.005Z,89.43
2019-03-31T11:35:56.436Z,92.47
2019-03-31T11:38:26.120Z,86.50
2019-03-31T11:40:55.638Z,80.03
2019-03-31T11:43:25.019Z,85.00
2019-03-31T11:45:54.792Z,68.63
2019-03-31T11:48:24.375Z,77.50
2019-03-31T11:50:53.791Z,80.17
2019-03-31T11:53:23.251Z,68.63
2019-03-31T11:55:52.895Z,73.17
2019-03-31T11:58:22.375Z,83.73
2019-03-31T12:00:54.838Z,80.63
2019-03-31T12:03:24.361Z,69.93
2019-03-31T12:05:53.862Z,65.07
2019-03-31T12:08:23.530Z,55.93
2019-03-31T12:10:53.015Z,70.63
2019-03-31T12:13:22.534Z,65.13
2019-03-31T12:15:52.065Z,50.50
2019-03-31T12:18:21.507Z,71.43
2019-03-31T12:20:51.026Z,54.60
2019-03-31T12:23:20.366Z,45.70
2019-03-31T12:25:49.970Z,50.53
2019-03-31T12:28:19.822Z,53.30
2019-03-31T12:30:49.183Z,57.83
2019-03-31T12:33:18.707Z,39.47
2019-03-31T12:35:48.143Z,52.97
2019-03-31T12:38:17.558Z,41.73
2019-03-31T12:40:47.547Z,38.13
2019-03-31T12:43:17.253Z,39.13
2019-03-31T12:45:46.603Z,36.43
2019-03-31T12:48:16.081Z,49.40
2019-03-31T12:50:45.595Z,39.77
2019-03-31T12:53:15.091Z,42.67
2019-03-31T12:55:44.544Z,37.13
2019-03-31T12:58:14.192Z,37.63
2019-03-31T13:00:43.748Z,41.83
2019-03-31T13:03:15.929Z,40.07
2019-03-31T13:05:44.518Z,36.87
2019-03-31T13:08:13.947Z,46.87
2019-03-31T13:10:43.479Z,39.73
2019-03-31T13:13:13.244Z,28.20
2019-03-31T13:15:42.666Z,40.13
2019-03-31T13:18:12.236Z,32.03
2019-03-31T13:20:41.752Z,41.07
2019-03-31T13:23:11.375Z,32.27
2019-03-31T13:25:40.809Z,38.50
2019-03-31T13:28:10.356Z,40.20
2019-03-31T13:30:39.730Z,41.40
2019-03-31T13:33:09.375Z,40.40
2019-03-31T13:35:39.082Z,38.80
2019-03-31T13:38:11.363Z,34.60
2019-03-31T13:40:40.189Z,41.77
2019-03-31T13:43:09.613Z,39.23
2019-03-31T13:45:39.080Z,30.80
2019-03-31T13:48:08.534Z,37.17
2019-03-31T13:50:37.981Z,43.13
2019-03-31T13:53:07.454Z,46.20
2019-03-31T13:55:37.015Z,43.83
2019-03-31T13:58:08.569Z,43.90
2019-03-31T14:00:42.126Z,36.13
2019-03-31T14:03:11.711Z,34.30
2019-03-31T14:05:41.450Z,27.20
2019-03-31T14:08:24.722Z,36.50
2019-03-31T14:10:42.247Z,35.47
2019-03-31T14:13:11.910Z,37.00
2019-03-31T14:15:41.347Z,33.13
2019-03-31T14:18:10.794Z,30.97
2019-03-31T14:20:40.164Z,43.77
2019-03-31T14:23:09.875Z,30.90
2019-03-31T14:25:39.444Z,38.67
2019-03-31T14:28:08.921Z,32.83
2019-03-31T14:30:38.419Z,28.00
2019-03-31T14:33:08.027Z,33.07
2019-03-31T14:35:38.193Z,34.07
2019-03-31T14:38:07.952Z,35.80
2019-03-31T14:40:37.896Z,33.07
2019-03-31T14:43:07.744Z,27.07
2019-03-31T14:45:37.888Z,29.30
2019-03-31T14:48:07.461Z,34.10
2019-03-31T14:50:40.605Z,33.30
2019-03-31T14:53:10.210Z,29.63
2019-03-31T14:55:39.981Z,33.10
2019-03-31T14:58:09.582Z,30.40
2019-03-31T15:00:40.029Z,36.07
2019-03-31T15:03:10.275Z,27.10
2019-03-31T15:05:40.105Z,25.93
2019-03-31T15:08:09.612Z,33.03
2019-03-31T15:10:39.047Z,26.30
2019-03-31T15:13:08.525Z,27.63
2019-03-31T15:15:38.000Z,24.60
2019-03-31T15:18:07.491Z,29.03
2019-03-31T15:20:37.015Z,28.17
2019-03-31T15:23:06.497Z,25.60
2019-03-31T15:25:36.105Z,31.37
2019-03-31T15:28:05.593Z,25.70
2019-03-31T15:30:35.171Z,24.83
2019-03-31T15:33:05.038Z,38.43
2019-03-31T15:35:37.500Z,34.60
2019-03-31T15:38:06.299Z,30.23
2019-03-31T15:40:35.919Z,32.07
2019-03-31T15:43:05.711Z,23.83
2019-03-31T15:45:35.586Z,24.57
2019-03-31T15:48:05.278Z,26.20
2019-03-31T15:50:34.768Z,23.90
2019-03-31T15:53:04.303Z,23.93
2019-03-31T15:55:33.646Z,19.20
2019-03-31T15:58:05.339Z,23.80
2019-03-31T16:00:34.179Z,21.70
2019-03-31T16:03:03.621Z,20.27
2019-03-31T16:05:33.341Z,15.63
2019-03-31T16:08:02.304Z,18.77
2019-03-31T16:10:31.275Z,20.13
2019-03-31T16:13:00.146Z,14.63
2019-03-31T16:15:29.024Z,16.60
2019-03-31T16:17:57.936Z,13.40
2019-03-31T16:20:26.887Z,29.20
2019-03-31T16:22:55.983Z,24.10
2019-03-31T16:25:30.763Z,16.03
2019-03-31T16:27:59.917Z,16.30
2019-03-31T16:30:29.283Z,20.77
2019-03-31T16:32:58.323Z,18.47
2019-03-31T16:35:27.189Z,19.05
2019-03-31T16:37:56.173Z,13.33
2019-03-31T16:40:25.208Z,12.93
2019-03-31T16:42:54.100Z,21.70
2019-03-31T16:45:23.025Z,13.53
2019-03-31T16:47:52.003Z,21.43
2019-03-31T16:50:21.278Z,16.47
2019-03-31T16:52:52.635Z,9.43
2019-03-31T16:55:20.907Z,14.80
2019-03-31T16:57:49.890Z,17.93
2019-03-31T17:00:18.910Z,17.40
2019-03-31T17:02:48.076Z,14.13
2019-03-31T17:05:22.094Z,15.13
2019-03-31T17:07:47.885Z,14.37
2019-03-31T17:10:16.867Z,19.63
2019-03-31T17:12:45.674Z,13.23
2019-03-31T17:15:14.739Z,15.33
2019-03-31T17:17:43.598Z,13.57
2019-03-31T17:20:12.953Z,14.50
2019-03-31T17:22:42.073Z,22.17
2019-03-31T17:25:11.228Z,10.40
2019-03-31T17:27:40.448Z,10.53
2019-03-31T17:30:09.843Z,13.50
2019-03-31T17:32:38.653Z,21.40
2019-03-31T17:35:08.032Z,22.67
2019-03-31T17:37:36.919Z,22.33
2019-03-31T17:40:07.201Z,19.97
2019-03-31T17:42:36.317Z,23.67
2019-03-31T17:45:06.811Z,15.00
2019-03-31T17:47:35.662Z,15.93
2019-03-31T17:50:05.596Z,14.67
2019-03-31T17:52:48.950Z,21.20
2019-03-31T17:55:15.861Z,19.17
2019-03-31T17:57:44.699Z,15.13
2019-03-31T18:00:14.242Z,15.17
2019-03-31T18:02:43.134Z,12.03
2019-03-31T18:05:12.176Z,23.33
2019-03-31T18:07:41.133Z,18.00
2019-03-31T18:10:20.943Z,17.23
2019-03-31T18:12:41.073Z,13.17
2019-03-31T18:15:10.077Z,10.70
2019-03-31T18:17:39.203Z,14.27
2019-03-31T18:20:08.208Z,15.60
2019-03-31T18:22:37.153Z,13.33
2019-03-31T18:25:06.703Z,16.57
2019-03-31T18:27:35.560Z,13.73
2019-03-31T18:30:05.207Z,14.23
2019-03-31T18:32:34.132Z,14.37
2019-03-31T18:35:03.142Z,16.33
2019-03-31T18:37:31.955Z,14.43
2019-03-31T18:40:00.843Z,15.63
2019-03-31T18:42:29.818Z,13.13
2019-03-31T18:44:59.042Z,19.80
2019-03-31T18:47:27.855Z,15.37
2019-03-31T18:49:57.035Z,12.67
2019-03-31T18:52:26.104Z,13.00
2019-03-31T18:55:01.592Z,16.57
2019-03-31T18:57:38.383Z,18.40
2019-03-31T19:00:26.076Z,13.83
2019-03-31T19:03:17.336Z,19.00
2019-03-31T19:06:14.392Z,12.10
2019-03-31T19:09:02.119Z,14.40
2019-03-31T19:11:44.089Z,14.97
2019-03-31T19:14:27.464Z,21.63
2019-03-31T19:17:31.010Z,14.03
2019-03-31T19:20:17.755Z,10.73
2019-03-31T19:23:09.896Z,15.53
2019-03-31T19:25:56.772Z,13.37
2019-03-31T19:28:53.806Z,10.77
2019-03-31T19:31:50.651Z,12.47
2019-03-31T19:34:36.900Z,10.53
2019-03-31T19:37:15.363Z,12.50
2019-03-31T19:40:01.933Z,12.70
2019-03-31T19:42:37.664Z,14.47
2019-03-31T19:45:19.495Z,11.03
2019-03-31T19:48:06.634Z,11.37
2019-03-31T19:51:03.900Z,21.20
2019-03-31T19:53:58.651Z,7.63
2019-03-31T19:56:52.317Z,13.90
2019-03-31T19:59:33.411Z,9.00
2019-03-31T20:02:25.383Z,15.90
2019-03-31T20:05:13.658Z,10.13
2019-03-31T20:07:50.478Z,11.17
2019-03-31T20:10:34.695Z,16.70
2019-03-31T20:13:22.938Z,10.73
2019-03-31T20:16:02.730Z,11.47
2019-03-31T20:18:41.700Z,18.33
2019-03-31T20:21:31.823Z,14.50
2019-03-31T20:24:04.371Z,9.97
2019-03-31T20:26:54.048Z,9.60
2019-03-31T20:29:41.060Z,11.87
2019-03-31T20:32:27.914Z,14.57
2019-03-31T20:35:18.903Z,11.50
2019-03-31T20:37:54.326Z,12.00
2019-03-31T20:40:39.835Z,10.40
2019-03-31T20:43:26.770Z,11.47
2019-03-31T20:45:55.610Z,13.63
2019-03-31T20:48:25.141Z,12.77
2019-03-31T20:50:53.951Z,22.20
2019-03-31T20:53:22.776Z,10.73
2019-03-31T20:55:51.569Z,13.70
2019-03-31T20:58:20.492Z,18.57
2019-03-31T21:00:49.338Z,13.27
2019-03-31T21:03:18.203Z,15.80
2019-03-31T21:05:47.013Z,10.37
2019-03-31T21:08:16.227Z,18.63
2019-03-31T21:10:45.139Z,13.90
2019-03-31T21:13:14.044Z,16.57
2019-03-31T21:15:43.267Z,11.70
2019-03-31T21:18:12.347Z,18.80
2019-03-31T21:20:41.298Z,18.53
2019-03-31T21:23:10.448Z,11.70
2019-03-31T21:25:39.266Z,12.53
2019-03-31T21:28:08.059Z,19.57
2019-03-31T21:30:37.674Z,9.00
2019-03-31T21:33:06.504Z,13.80
2019-03-31T21:35:35.544Z,14.27
2019-03-31T21:38:04.733Z,20.87
2019-03-31T21:40:33.626Z,9.40
2019-03-31T21:43:02.439Z,9.20
2019-03-31T21:45:31.235Z,15.93
2019-03-31T21:48:00.055Z,6.80
2019-03-31T21:50:29.067Z,16.87
2019-03-31T21:52:57.965Z,15.70
2019-03-31T21:55:26.783Z,13.93
2019-03-31T21:57:55.998Z,9.80
2019-03-31T22:00:37.330Z,23.10
2019-03-31T22:03:06.128Z,14.10
2019-03-31T22:05:35.003Z,15.73
2019-03-31T22:08:04.151Z,20.63
2019-03-31T22:10:33.144Z,14.47
2019-03-31T22:13:02.025Z,10.13
2019-03-31T22:15:30.821Z,9.27
2019-03-31T22:17:59.769Z,15.90
2019-03-31T22:20:28.603Z,16.27
2019-03-31T22:22:57.510Z,14.43
2019-03-31T22:25:26.408Z,9.33
2019-03-31T22:27:55.229Z,13.53
2019-03-31T22:30:24.065Z,16.50
2019-03-31T22:32:52.961Z,19.47
2019-03-31T22:35:21.941Z,9.70
2019-03-31T22:37:50.780Z,17.10
2019-03-31T22:40:19.581Z,18.77
2019-03-31T22:42:48.473Z,11.60
2019-03-31T22:45:17.326Z,29.73
2019-03-31T22:47:46.196Z,6.50
2019-03-31T22:50:15.171Z,5.90
2019-03-31T22:52:44.011Z,15.13
2019-03-31T22:55:13.077Z,9.27
2019-03-31T22:57:41.893Z,17.30
2019-03-31T23:00:18.680Z,7.90
2019-03-31T23:02:47.478Z,8.23
2019-03-31T23:05:16.275Z,9.73
2019-03-31T23:07:45.380Z,13.80
2019-03-31T23:10:14.549Z,15.83
2019-03-31T23:12:43.508Z,16.50
2019-03-31T23:15:12.475Z,19.50
2019-03-31T23:17:41.636Z,11.07
2019-03-31T23:20:10.599Z,17.43
2019-03-31T23:22:39.726Z,9.03
2019-03-31T23:25:11.724Z,4.27
2019-03-31T23:27:40.543Z,15.90
2019-03-31T23:30:10.753Z,10.60
2019-03-31T23:32:39.733Z,18.87
2019-03-31T23:35:08.698Z,11.53
2019-03-31T23:37:37.598Z,24.80
2019-03-31T23:40:07.295Z,26.57
2019-03-31T23:42:36.199Z,3.10
2019-03-31T23:45:05.656Z,11.83
2019-03-31T23:47:34.630Z,12.40
2019-03-31T23:50:03.515Z,10.93
2019-03-31T23:52:32.350Z,7.77
2019-03-31T23:55:01.165Z,7.00
2019-03-31T23:57:39.638Z,12.40
